Adams Landing, Vermont
Current Conditions -  °F | °C
As of 4:53 AM on Saturday 29 Nov 2014 (Local Time) from KPBG Reporting Station
Clear Clear  
Wind Chill:   Ceiling: Unl
Heat Index: 13°   Visibility: 10mi
Dew Point: 10°   Wind: 6mph
Humidity: 88%   Direction: 290°WNW
Pressure: 30.23"   Gusts: NA
Location:  44.717°N, 73.3067°W
Report Text: KPBG 290953Z AUTO 29005KT 10SM CLR M11/M12 A3023 RMK AO2 SLP243 T11061122
Loading
Personal Weather Stations






























Interactive Weather Map New forecast layout! Learn more

10-Day Weather Forecast

Advertisements
Track Severe Weather on mobile